sensor_id;sensor_type;location;lat;lon;timestamp;temperature;humidity
79750;SHT31;69233;51.968;5.658;2023-11-22T00:01:10;25.7;36.6
79750;SHT31;69233;51.968;5.658;2023-11-22T00:03:39;25.7;36.7
79750;SHT31;69233;51.968;5.658;2023-11-22T00:06:08;25.7;36.6
79750;SHT31;69233;51.968;5.658;2023-11-22T00:08:36;25.7;36.5
79750;SHT31;69233;51.968;5.658;2023-11-22T00:11:05;25.7;36.8
79750;SHT31;69233;51.968;5.658;2023-11-22T00:13:34;25.7;36.7
79750;SHT31;69233;51.968;5.658;2023-11-22T00:16:03;25.7;36.5
79750;SHT31;69233;51.968;5.658;2023-11-22T00:18:35;25.7;36.5
79750;SHT31;69233;51.968;5.658;2023-11-22T00:21:05;25.7;36.6
79750;SHT31;69233;51.968;5.658;2023-11-22T00:23:34;25.6;36.6
79750;SHT31;69233;51.968;5.658;2023-11-22T00:26:04;25.6;36.7
79750;SHT31;69233;51.968;5.658;2023-11-22T00:28:33;25.6;36.7
79750;SHT31;69233;51.968;5.658;2023-11-22T00:31:02;25.6;36.5
79750;SHT31;69233;51.968;5.658;2023-11-22T00:33:31;25.6;36.4
79750;SHT31;69233;51.968;5.658;2023-11-22T00:36:01;25.6;36.4
79750;SHT31;69233;51.968;5.658;2023-11-22T00:38:31;25.6;36.5
79750;SHT31;69233;51.968;5.658;2023-11-22T00:41:02;25.6;36.3
79750;SHT31;69233;51.968;5.658;2023-11-22T00:43:31;25.6;36.3
79750;SHT31;69233;51.968;5.658;2023-11-22T00:46:00;25.6;36.3
79750;SHT31;69233;51.968;5.658;2023-11-22T00:48:29;25.6;36.3
79750;SHT31;69233;51.968;5.658;2023-11-22T00:50:58;25.6;36.3
79750;SHT31;69233;51.968;5.658;2023-11-22T00:53:26;25.6;36.3
79750;SHT31;69233;51.968;5.658;2023-11-22T00:55:56;25.6;36.2
79750;SHT31;69233;51.968;5.658;2023-11-22T00:58:24;25.6;36.3
79750;SHT31;69233;51.968;5.658;2023-11-22T01:00:53;25.6;36.3
79750;SHT31;69233;51.968;5.658;2023-11-22T01:03:23;25.6;36.2
79750;SHT31;69233;51.968;5.658;2023-11-22T01:05:52;25.6;36.1
79750;SHT31;69233;51.968;5.658;2023-11-22T01:08:20;25.6;36.1
79750;SHT31;69233;51.968;5.658;2023-11-22T01:10:49;25.6;36.1
79750;SHT31;69233;51.968;5.658;2023-11-22T01:13:17;25.6;36.0
79750;SHT31;69233;51.968;5.658;2023-11-22T01:15:48;25.6;36.0
79750;SHT31;69233;51.968;5.658;2023-11-22T01:18:17;25.5;36.0
79750;SHT31;69233;51.968;5.658;2023-11-22T01:20:46;25.5;36.1
79750;SHT31;69233;51.968;5.658;2023-11-22T01:23:14;25.5;36.0
79750;SHT31;69233;51.968;5.658;2023-11-22T01:25:43;25.5;35.9
79750;SHT31;69233;51.968;5.658;2023-11-22T01:28:11;25.5;35.9
79750;SHT31;69233;51.968;5.658;2023-11-22T01:30:40;25.5;35.8
79750;SHT31;69233;51.968;5.658;2023-11-22T01:33:12;25.5;35.8
79750;SHT31;69233;51.968;5.658;2023-11-22T01:35:41;25.5;36.0
79750;SHT31;69233;51.968;5.658;2023-11-22T01:38:10;25.5;35.6
79750;SHT31;69233;51.968;5.658;2023-11-22T01:40:45;25.5;35.7
79750;SHT31;69233;51.968;5.658;2023-11-22T01:43:18;25.5;35.6
79750;SHT31;69233;51.968;5.658;2023-11-22T01:45:47;25.5;35.7
79750;SHT31;69233;51.968;5.658;2023-11-22T01:48:17;25.5;35.5
79750;SHT31;69233;51.968;5.658;2023-11-22T01:50:46;25.5;35.6
79750;SHT31;69233;51.968;5.658;2023-11-22T01:53:18;25.5;35.5
79750;SHT31;69233;51.968;5.658;2023-11-22T01:55:48;25.5;35.4
79750;SHT31;69233;51.968;5.658;2023-11-22T01:58:18;25.5;35.7
79750;SHT31;69233;51.968;5.658;2023-11-22T02:00:49;25.5;35.5
79750;SHT31;69233;51.968;5.658;2023-11-22T02:03:19;25.5;35.6
79750;SHT31;69233;51.968;5.658;2023-11-22T02:05:49;25.5;35.4
79750;SHT31;69233;51.968;5.658;2023-11-22T02:08:21;25.5;35.2
79750;SHT31;69233;51.968;5.658;2023-11-22T02:10:59;25.5;35.5
79750;SHT31;69233;51.968;5.658;2023-11-22T02:13:29;25.5;35.3
79750;SHT31;69233;51.968;5.658;2023-11-22T02:15:58;25.5;35.3
79750;SHT31;69233;51.968;5.658;2023-11-22T02:18:28;25.5;35.2
79750;SHT31;69233;51.968;5.658;2023-11-22T02:20:57;25.5;35.3
79750;SHT31;69233;51.968;5.658;2023-11-22T02:23:26;25.5;35.2
79750;SHT31;69233;51.968;5.658;2023-11-22T02:25:55;25.5;35.3
79750;SHT31;69233;51.968;5.658;2023-11-22T02:28:25;25.5;35.2
79750;SHT31;69233;51.968;5.658;2023-11-22T02:30:53;25.5;35.1
79750;SHT31;69233;51.968;5.658;2023-11-22T02:33:22;25.5;35.0
79750;SHT31;69233;51.968;5.658;2023-11-22T02:35:51;25.5;35.1
79750;SHT31;69233;51.968;5.658;2023-11-22T02:38:21;25.5;35.0
79750;SHT31;69233;51.968;5.658;2023-11-22T02:40:50;25.5;35.0
79750;SHT31;69233;51.968;5.658;2023-11-22T02:43:19;25.5;35.1
79750;SHT31;69233;51.968;5.658;2023-11-22T02:45:49;25.5;35.0
79750;SHT31;69233;51.968;5.658;2023-11-22T02:48:18;25.5;34.9
79750;SHT31;69233;51.968;5.658;2023-11-22T02:50:47;25.5;34.9
79750;SHT31;69233;51.968;5.658;2023-11-22T02:53:15;25.4;34.8
79750;SHT31;69233;51.968;5.658;2023-11-22T02:55:43;25.4;34.9
79750;SHT31;69233;51.968;5.658;2023-11-22T02:58:12;25.4;34.7
79750;SHT31;69233;51.968;5.658;2023-11-22T03:00:41;25.4;34.7
79750;SHT31;69233;51.968;5.658;2023-11-22T03:03:13;25.4;34.8
79750;SHT31;69233;51.968;5.658;2023-11-22T03:05:43;25.4;34.7
79750;SHT31;69233;51.968;5.658;2023-11-22T03:08:12;25.4;34.7
79750;SHT31;69233;51.968;5.658;2023-11-22T03:10:42;25.4;34.7
79750;SHT31;69233;51.968;5.658;2023-11-22T03:13:13;25.4;34.5
79750;SHT31;69233;51.968;5.658;2023-11-22T03:15:42;25.4;34.7
79750;SHT31;69233;51.968;5.658;2023-11-22T03:18:11;25.4;34.7
79750;SHT31;69233;51.968;5.658;2023-11-22T03:20:39;25.4;34.5
79750;SHT31;69233;51.968;5.658;2023-11-22T03:23:09;25.4;34.4
79750;SHT31;69233;51.968;5.658;2023-11-22T03:25:38;25.4;34.5
79750;SHT31;69233;51.968;5.658;2023-11-22T03:28:09;25.4;34.3
79750;SHT31;69233;51.968;5.658;2023-11-22T03:30:37;25.4;34.5
79750;SHT31;69233;51.968;5.658;2023-11-22T03:33:07;25.4;34.4
79750;SHT31;69233;51.968;5.658;2023-11-22T03:35:35;25.4;34.4
79750;SHT31;69233;51.968;5.658;2023-11-22T03:38:05;25.4;34.3
79750;SHT31;69233;51.968;5.658;2023-11-22T03:40:34;25.4;34.4
79750;SHT31;69233;51.968;5.658;2023-11-22T03:43:03;25.4;34.3
79750;SHT31;69233;51.968;5.658;2023-11-22T03:45:34;25.4;34.3
79750;SHT31;69233;51.968;5.658;2023-11-22T03:48:03;25.4;34.3
79750;SHT31;69233;51.968;5.658;2023-11-22T03:50:31;25.4;34.4
79750;SHT31;69233;51.968;5.658;2023-11-22T03:53:00;25.4;34.2
79750;SHT31;69233;51.968;5.658;2023-11-22T03:55:28;25.4;34.1
79750;SHT31;69233;51.968;5.658;2023-11-22T03:57:57;25.4;34.1
79750;SHT31;69233;51.968;5.658;2023-11-22T04:00:25;25.4;34.1
79750;SHT31;69233;51.968;5.658;2023-11-22T04:02:54;25.4;34.1
79750;SHT31;69233;51.968;5.658;2023-11-22T04:05:26;25.4;34.1
79750;SHT31;69233;51.968;5.658;2023-11-22T04:07:55;25.4;34.1
79750;SHT31;69233;51.968;5.658;2023-11-22T04:10:24;25.4;34.1
79750;SHT31;69233;51.968;5.658;2023-11-22T04:12:52;25.4;34.1
79750;SHT31;69233;51.968;5.658;2023-11-22T04:15:21;25.4;34.0
79750;SHT31;69233;51.968;5.658;2023-11-22T04:17:49;25.4;33.9
79750;SHT31;69233;51.968;5.658;2023-11-22T04:20:20;25.4;34.0
79750;SHT31;69233;51.968;5.658;2023-11-22T04:22:51;25.4;34.1
79750;SHT31;69233;51.968;5.658;2023-11-22T04:25:19;25.4;33.9
79750;SHT31;69233;51.968;5.658;2023-11-22T04:27:48;25.4;33.9
79750;SHT31;69233;51.968;5.658;2023-11-22T04:30:18;25.4;33.9
79750;SHT31;69233;51.968;5.658;2023-11-22T04:32:47;25.4;33.8
79750;SHT31;69233;51.968;5.658;2023-11-22T04:35:17;25.4;33.8
79750;SHT31;69233;51.968;5.658;2023-11-22T04:37:46;25.4;33.7
79750;SHT31;69233;51.968;5.658;2023-11-22T04:40:17;25.4;33.7
79750;SHT31;69233;51.968;5.658;2023-11-22T04:42:46;25.4;33.8
79750;SHT31;69233;51.968;5.658;2023-11-22T04:45:14;25.4;33.8
79750;SHT31;69233;51.968;5.658;2023-11-22T04:47:43;25.4;33.7
79750;SHT31;69233;51.968;5.658;2023-11-22T04:50:12;25.4;33.7
79750;SHT31;69233;51.968;5.658;2023-11-22T04:52:43;25.4;33.6
79750;SHT31;69233;51.968;5.658;2023-11-22T04:55:12;25.4;33.5
79750;SHT31;69233;51.968;5.658;2023-11-22T04:57:42;25.4;33.5
79750;SHT31;69233;51.968;5.658;2023-11-22T05:00:12;25.4;33.6
79750;SHT31;69233;51.968;5.658;2023-11-22T05:02:41;25.4;33.6
79750;SHT31;69233;51.968;5.658;2023-11-22T05:05:10;25.4;33.6
79750;SHT31;69233;51.968;5.658;2023-11-22T05:07:38;25.4;33.5
79750;SHT31;69233;51.968;5.658;2023-11-22T05:10:11;25.4;33.4
79750;SHT31;69233;51.968;5.658;2023-11-22T05:12:40;25.4;33.5
79750;SHT31;69233;51.968;5.658;2023-11-22T05:15:10;25.4;33.4
79750;SHT31;69233;51.968;5.658;2023-11-22T05:17:40;25.4;33.4
79750;SHT31;69233;51.968;5.658;2023-11-22T05:20:09;25.4;33.4
79750;SHT31;69233;51.968;5.658;2023-11-22T05:22:38;25.4;33.4
79750;SHT31;69233;51.968;5.658;2023-11-22T05:25:08;25.4;33.5
79750;SHT31;69233;51.968;5.658;2023-11-22T05:27:37;25.4;33.5
79750;SHT31;69233;51.968;5.658;2023-11-22T05:30:07;25.4;33.5
79750;SHT31;69233;51.968;5.658;2023-11-22T05:32:37;25.4;33.5
79750;SHT31;69233;51.968;5.658;2023-11-22T05:35:06;25.4;33.5
79750;SHT31;69233;51.968;5.658;2023-11-22T05:37:36;25.4;33.4
79750;SHT31;69233;51.968;5.658;2023-11-22T05:40:06;25.4;33.4
79750;SHT31;69233;51.968;5.658;2023-11-22T05:42:37;25.4;33.3
79750;SHT31;69233;51.968;5.658;2023-11-22T05:45:10;25.4;33.2
79750;SHT31;69233;51.968;5.658;2023-11-22T05:47:39;25.4;33.3
79750;SHT31;69233;51.968;5.658;2023-11-22T05:50:10;25.4;33.1
79750;SHT31;69233;51.968;5.658;2023-11-22T05:52:38;25.4;33.3
79750;SHT31;69233;51.968;5.658;2023-11-22T05:55:09;25.4;33.3
79750;SHT31;69233;51.968;5.658;2023-11-22T05:57:40;25.4;33.3
79750;SHT31;69233;51.968;5.658;2023-11-22T06:00:10;25.4;33.3
79750;SHT31;69233;51.968;5.658;2023-11-22T06:02:40;25.4;33.4
79750;SHT31;69233;51.968;5.658;2023-11-22T06:05:09;25.4;33.3
79750;SHT31;69233;51.968;5.658;2023-11-22T06:07:39;25.4;33.2
79750;SHT31;69233;51.968;5.658;2023-11-22T06:10:09;25.4;33.3
79750;SHT31;69233;51.968;5.658;2023-11-22T06:12:40;25.4;33.2
79750;SHT31;69233;51.968;5.658;2023-11-22T06:15:11;25.4;33.3
79750;SHT31;69233;51.968;5.658;2023-11-22T06:17:40;25.4;33.2
79750;SHT31;69233;51.968;5.658;2023-11-22T06:20:10;25.4;33.2
79750;SHT31;69233;51.968;5.658;2023-11-22T06:22:40;25.4;33.2
79750;SHT31;69233;51.968;5.658;2023-11-22T06:25:10;25.4;33.2
79750;SHT31;69233;51.968;5.658;2023-11-22T06:27:39;25.4;33.2
79750;SHT31;69233;51.968;5.658;2023-11-22T06:30:09;25.4;33.3
79750;SHT31;69233;51.968;5.658;2023-11-22T06:32:39;25.4;33.2
79750;SHT31;69233;51.968;5.658;2023-11-22T06:35:09;25.4;33.2
79750;SHT31;69233;51.968;5.658;2023-11-22T06:37:41;25.4;33.2
79750;SHT31;69233;51.968;5.658;2023-11-22T06:40:13;25.4;33.1
79750;SHT31;69233;51.968;5.658;2023-11-22T06:42:43;25.4;33.2
79750;SHT31;69233;51.968;5.658;2023-11-22T06:45:12;25.4;33.2
79750;SHT31;69233;51.968;5.658;2023-11-22T06:47:41;25.4;33.2
79750;SHT31;69233;51.968;5.658;2023-11-22T06:50:11;25.4;33.0
79750;SHT31;69233;51.968;5.658;2023-11-22T06:52:40;25.4;33.1
79750;SHT31;69233;51.968;5.658;2023-11-22T06:55:10;25.4;33.1
79750;SHT31;69233;51.968;5.658;2023-11-22T06:57:39;25.4;33.0
79750;SHT31;69233;51.968;5.658;2023-11-22T07:00:08;25.4;33.1
79750;SHT31;69233;51.968;5.658;2023-11-22T07:02:39;25.4;33.1
79750;SHT31;69233;51.968;5.658;2023-11-22T07:05:08;25.4;33.1
79750;SHT31;69233;51.968;5.658;2023-11-22T07:07:38;25.4;33.1
79750;SHT31;69233;51.968;5.658;2023-11-22T07:10:08;25.4;33.2
79750;SHT31;69233;51.968;5.658;2023-11-22T07:12:38;25.4;33.1
79750;SHT31;69233;51.968;5.658;2023-11-22T07:15:10;25.4;33.0
79750;SHT31;69233;51.968;5.658;2023-11-22T07:17:40;25.4;32.9
79750;SHT31;69233;51.968;5.658;2023-11-22T07:20:10;25.3;33.1
79750;SHT31;69233;51.968;5.658;2023-11-22T07:22:43;25.3;32.9
79750;SHT31;69233;51.968;5.658;2023-11-22T07:25:12;25.3;33.3
79750;SHT31;69233;51.968;5.658;2023-11-22T07:27:45;25.3;33.4
79750;SHT31;69233;51.968;5.658;2023-11-22T07:30:15;25.3;33.5
79750;SHT31;69233;51.968;5.658;2023-11-22T07:32:46;25.3;33.7
79750;SHT31;69233;51.968;5.658;2023-11-22T07:35:15;25.3;33.8
79750;SHT31;69233;51.968;5.658;2023-11-22T07:37:46;25.3;33.9
79750;SHT31;69233;51.968;5.658;2023-11-22T07:40:18;25.3;34.0
79750;SHT31;69233;51.968;5.658;2023-11-22T07:42:48;25.3;34.1
79750;SHT31;69233;51.968;5.658;2023-11-22T07:45:17;25.3;34.3
79750;SHT31;69233;51.968;5.658;2023-11-22T07:47:45;25.3;34.4
79750;SHT31;69233;51.968;5.658;2023-11-22T07:50:14;25.3;34.6
79750;SHT31;69233;51.968;5.658;2023-11-22T07:52:42;25.3;34.6
79750;SHT31;69233;51.968;5.658;2023-11-22T07:55:11;25.3;34.7
79750;SHT31;69233;51.968;5.658;2023-11-22T07:57:41;25.3;34.8
79750;SHT31;69233;51.968;5.658;2023-11-22T08:00:11;25.3;35.0
79750;SHT31;69233;51.968;5.658;2023-11-22T08:02:40;25.3;35.0
79750;SHT31;69233;51.968;5.658;2023-11-22T08:05:09;25.3;35.0
79750;SHT31;69233;51.968;5.658;2023-11-22T08:07:39;25.3;35.0
79750;SHT31;69233;51.968;5.658;2023-11-22T08:10:08;25.3;35.2
79750;SHT31;69233;51.968;5.658;2023-11-22T08:12:43;25.3;35.2
79750;SHT31;69233;51.968;5.658;2023-11-22T08:15:13;25.3;35.2
79750;SHT31;69233;51.968;5.658;2023-11-22T08:17:42;25.3;35.2
79750;SHT31;69233;51.968;5.658;2023-11-22T08:20:12;25.3;35.1
79750;SHT31;69233;51.968;5.658;2023-11-22T08:22:44;25.3;35.0
79750;SHT31;69233;51.968;5.658;2023-11-22T08:25:16;25.3;35.2
79750;SHT31;69233;51.968;5.658;2023-11-22T08:27:45;25.3;35.0
79750;SHT31;69233;51.968;5.658;2023-11-22T08:30:14;25.3;34.8
79750;SHT31;69233;51.968;5.658;2023-11-22T08:32:45;25.3;34.7
79750;SHT31;69233;51.968;5.658;2023-11-22T08:35:19;25.3;34.8
79750;SHT31;69233;51.968;5.658;2023-11-22T08:37:50;25.3;35.0
79750;SHT31;69233;51.968;5.658;2023-11-22T08:40:19;25.3;35.0
79750;SHT31;69233;51.968;5.658;2023-11-22T08:42:49;25.3;35.1
79750;SHT31;69233;51.968;5.658;2023-11-22T08:45:19;25.3;35.0
79750;SHT31;69233;51.968;5.658;2023-11-22T08:47:48;25.3;35.1
79750;SHT31;69233;51.968;5.658;2023-11-22T08:50:18;25.3;35.0
79750;SHT31;69233;51.968;5.658;2023-11-22T08:52:46;25.3;35.1
79750;SHT31;69233;51.968;5.658;2023-11-22T08:55:19;25.3;35.3
79750;SHT31;69233;51.968;5.658;2023-11-22T08:57:48;25.3;35.2
79750;SHT31;69233;51.968;5.658;2023-11-22T09:00:18;25.3;35.2
79750;SHT31;69233;51.968;5.658;2023-11-22T09:02:49;25.3;35.2
79750;SHT31;69233;51.968;5.658;2023-11-22T09:05:18;25.3;35.2
79750;SHT31;69233;51.968;5.658;2023-11-22T09:07:48;25.3;35.3
79750;SHT31;69233;51.968;5.658;2023-11-22T09:10:17;25.3;35.4
79750;SHT31;69233;51.968;5.658;2023-11-22T09:12:48;25.3;35.3
79750;SHT31;69233;51.968;5.658;2023-11-22T09:15:18;25.3;35.3
79750;SHT31;69233;51.968;5.658;2023-11-22T09:17:52;25.3;35.4
79750;SHT31;69233;51.968;5.658;2023-11-22T09:20:22;25.3;35.4
79750;SHT31;69233;51.968;5.658;2023-11-22T09:22:52;25.3;35.5
79750;SHT31;69233;51.968;5.658;2023-11-22T09:25:24;25.3;35.4
79750;SHT31;69233;51.968;5.658;2023-11-22T09:27:55;25.3;35.4
79750;SHT31;69233;51.968;5.658;2023-11-22T09:30:27;25.3;35.5
79750;SHT31;69233;51.968;5.658;2023-11-22T09:33:06;25.3;35.2
79750;SHT31;69233;51.968;5.658;2023-11-22T09:35:37;25.3;34.9
79750;SHT31;69233;51.968;5.658;2023-11-22T09:38:07;25.3;35.3
79750;SHT31;69233;51.968;5.658;2023-11-22T09:40:40;25.3;35.3
79750;SHT31;69233;51.968;5.658;2023-11-22T09:43:10;25.3;35.4
79750;SHT31;69233;51.968;5.658;2023-11-22T09:45:41;25.3;35.4
79750;SHT31;69233;51.968;5.658;2023-11-22T09:48:15;25.3;35.5
79750;SHT31;69233;51.968;5.658;2023-11-22T09:50:50;25.3;32.6
79750;SHT31;69233;51.968;5.658;2023-11-22T09:53:30;25.3;33.5
79750;SHT31;69233;51.968;5.658;2023-11-22T09:56:02;25.3;34.1
79750;SHT31;69233;51.968;5.658;2023-11-22T09:58:33;25.3;34.2
79750;SHT31;69233;51.968;5.658;2023-11-22T10:01:03;25.3;34.4
79750;SHT31;69233;51.968;5.658;2023-11-22T10:03:32;25.3;34.2
79750;SHT31;69233;51.968;5.658;2023-11-22T10:06:00;25.3;34.4
79750;SHT31;69233;51.968;5.658;2023-11-22T10:08:33;25.3;34.3
79750;SHT31;69233;51.968;5.658;2023-11-22T10:11:03;25.3;34.5
79750;SHT31;69233;51.968;5.658;2023-11-22T10:13:33;25.3;34.7
79750;SHT31;69233;51.968;5.658;2023-11-22T10:16:11;25.3;34.9
79750;SHT31;69233;51.968;5.658;2023-11-22T10:18:43;25.3;34.9
79750;SHT31;69233;51.968;5.658;2023-11-22T10:21:23;25.3;34.3
79750;SHT31;69233;51.968;5.658;2023-11-22T10:23:56;25.3;34.7
79750;SHT31;69233;51.968;5.658;2023-11-22T10:26:25;25.3;34.9
79750;SHT31;69233;51.968;5.658;2023-11-22T10:28:56;25.3;34.8
79750;SHT31;69233;51.968;5.658;2023-11-22T10:31:25;25.3;34.8
79750;SHT31;69233;51.968;5.658;2023-11-22T10:33:54;25.3;32.3
79750;SHT31;69233;51.968;5.658;2023-11-22T10:36:24;25.3;33.9
79750;SHT31;69233;51.968;5.658;2023-11-22T10:38:56;25.3;34.1
79750;SHT31;69233;51.968;5.658;2023-11-22T10:41:25;25.3;34.2
79750;SHT31;69233;51.968;5.658;2023-11-22T10:43:54;25.3;34.3
79750;SHT31;69233;51.968;5.658;2023-11-22T10:46:28;25.3;34.4
79750;SHT31;69233;51.968;5.658;2023-11-22T10:48:57;25.3;34.5
79750;SHT31;69233;51.968;5.658;2023-11-22T10:51:30;25.3;34.5
79750;SHT31;69233;51.968;5.658;2023-11-22T10:54:01;25.3;34.5
79750;SHT31;69233;51.968;5.658;2023-11-22T10:56:38;25.3;34.6
79750;SHT31;69233;51.968;5.658;2023-11-22T10:59:11;25.3;34.6
79750;SHT31;69233;51.968;5.658;2023-11-22T11:01:44;25.3;34.7
79750;SHT31;69233;51.968;5.658;2023-11-22T11:04:24;25.3;34.8
79750;SHT31;69233;51.968;5.658;2023-11-22T11:06:55;25.3;34.8
79750;SHT31;69233;51.968;5.658;2023-11-22T11:09:27;25.3;34.9
79750;SHT31;69233;51.968;5.658;2023-11-22T11:11:59;25.3;34.8
79750;SHT31;69233;51.968;5.658;2023-11-22T11:14:30;25.3;34.7
79750;SHT31;69233;51.968;5.658;2023-11-22T11:17:01;25.3;34.8
79750;SHT31;69233;51.968;5.658;2023-11-22T11:19:31;25.3;35.0
79750;SHT31;69233;51.968;5.658;2023-11-22T11:22:03;25.3;35.1
79750;SHT31;69233;51.968;5.658;2023-11-22T11:24:40;25.3;35.0
79750;SHT31;69233;51.968;5.658;2023-11-22T11:27:11;25.3;35.2
79750;SHT31;69233;51.968;5.658;2023-11-22T11:29:41;25.3;35.2
79750;SHT31;69233;51.968;5.658;2023-11-22T11:32:13;25.3;35.0
79750;SHT31;69233;51.968;5.658;2023-11-22T11:34:50;25.3;35.3
79750;SHT31;69233;51.968;5.658;2023-11-22T11:37:20;25.3;35.6
79750;SHT31;69233;51.968;5.658;2023-11-22T11:39:49;25.4;35.7
79750;SHT31;69233;51.968;5.658;2023-11-22T11:42:17;25.4;35.7
79750;SHT31;69233;51.968;5.658;2023-11-22T11:45:06;25.4;36.0
79750;SHT31;69233;51.968;5.658;2023-11-22T11:47:37;25.4;36.1
79750;SHT31;69233;51.968;5.658;2023-11-22T11:50:07;25.4;36.1
79750;SHT31;69233;51.968;5.658;2023-11-22T11:52:40;25.4;36.0
79750;SHT31;69233;51.968;5.658;2023-11-22T11:55:09;25.4;36.3
79750;SHT31;69233;51.968;5.658;2023-11-22T11:57:37;25.4;36.3
79750;SHT31;69233;51.968;5.658;2023-11-22T12:00:09;25.4;36.2
79750;SHT31;69233;51.968;5.658;2023-11-22T12:02:40;25.4;36.2
79750;SHT31;69233;51.968;5.658;2023-11-22T12:28:49;18.3;34.3
79750;SHT31;69233;51.968;5.658;2023-11-22T12:31:19;17.5;39.3
79750;SHT31;69233;51.968;5.658;2023-11-22T12:33:49;15.0;45.4
79750;SHT31;69233;51.968;5.658;2023-11-22T12:36:19;14.3;46.4
79750;SHT31;69233;51.968;5.658;2023-11-22T12:38:48;13.8;48.4
79750;SHT31;69233;51.968;5.658;2023-11-22T12:41:16;13.4;49.5
79750;SHT31;69233;51.968;5.658;2023-11-22T12:44:03;13.1;50.6
79750;SHT31;69233;51.968;5.658;2023-11-22T12:46:46;12.8;51.2
79750;SHT31;69233;51.968;5.658;2023-11-22T12:49:16;12.6;51.4
79750;SHT31;69233;51.968;5.658;2023-11-22T12:51:50;12.3;52.0
79750;SHT31;69233;51.968;5.658;2023-11-22T12:54:19;12.1;52.3
79750;SHT31;69233;51.968;5.658;2023-11-22T12:56:49;11.9;53.9
79750;SHT31;69233;51.968;5.658;2023-11-22T12:59:20;11.7;54.8
79750;SHT31;69233;51.968;5.658;2023-11-22T13:01:49;11.5;54.8
79750;SHT31;69233;51.968;5.658;2023-11-22T13:04:21;11.4;54.5
79750;SHT31;69233;51.968;5.658;2023-11-22T13:06:49;11.3;54.7
79750;SHT31;69233;51.968;5.658;2023-11-22T13:09:20;11.2;55.0
79750;SHT31;69233;51.968;5.658;2023-11-22T13:11:48;11.0;56.0
79750;SHT31;69233;51.968;5.658;2023-11-22T13:14:18;10.9;55.7
79750;SHT31;69233;51.968;5.658;2023-11-22T13:16:47;10.8;56.6
79750;SHT31;69233;51.968;5.658;2023-11-22T13:19:15;10.7;56.3
79750;SHT31;69233;51.968;5.658;2023-11-22T13:21:44;10.6;58.4
79750;SHT31;69233;51.968;5.658;2023-11-22T13:24:14;10.5;58.3
79750;SHT31;69233;51.968;5.658;2023-11-22T13:26:44;10.4;58.4
79750;SHT31;69233;51.968;5.658;2023-11-22T13:29:13;10.3;58.5
79750;SHT31;69233;51.968;5.658;2023-11-22T13:31:42;10.2;58.9
79750;SHT31;69233;51.968;5.658;2023-11-22T13:34:10;10.2;59.8
79750;SHT31;69233;51.968;5.658;2023-11-22T13:36:39;10.1;60.3
79750;SHT31;69233;51.968;5.658;2023-11-22T13:39:07;10.0;60.5
79750;SHT31;69233;51.968;5.658;2023-11-22T13:41:36;10.0;60.6
79750;SHT31;69233;51.968;5.658;2023-11-22T13:44:05;9.9;60.1
79750;SHT31;69233;51.968;5.658;2023-11-22T13:46:34;9.9;60.4
79750;SHT31;69233;51.968;5.658;2023-11-22T13:49:02;9.8;60.9
79750;SHT31;69233;51.968;5.658;2023-11-22T13:51:33;9.8;61.7
79750;SHT31;69233;51.968;5.658;2023-11-22T13:54:01;9.8;61.4
79750;SHT31;69233;51.968;5.658;2023-11-22T13:56:30;9.7;61.0
79750;SHT31;69233;51.968;5.658;2023-11-22T13:58:59;9.7;62.1
79750;SHT31;69233;51.968;5.658;2023-11-22T14:01:28;9.7;62.9
79750;SHT31;69233;51.968;5.658;2023-11-22T14:03:59;9.6;62.0
79750;SHT31;69233;51.968;5.658;2023-11-22T14:06:28;9.6;63.3
79750;SHT31;69233;51.968;5.658;2023-11-22T14:08:57;9.6;63.1
79750;SHT31;69233;51.968;5.658;2023-11-22T14:11:26;9.6;63.6
79750;SHT31;69233;51.968;5.658;2023-11-22T14:13:56;9.6;63.4
79750;SHT31;69233;51.968;5.658;2023-11-22T14:16:26;9.6;63.7
79750;SHT31;69233;51.968;5.658;2023-11-22T14:18:57;9.6;64.1
79750;SHT31;69233;51.968;5.658;2023-11-22T14:21:26;9.6;63.3
79750;SHT31;69233;51.968;5.658;2023-11-22T14:23:55;9.6;64.0
79750;SHT31;69233;51.968;5.658;2023-11-22T14:26:24;9.6;64.1
79750;SHT31;69233;51.968;5.658;2023-11-22T14:28:52;9.6;64.0
79750;SHT31;69233;51.968;5.658;2023-11-22T14:31:21;9.6;64.1
79750;SHT31;69233;51.968;5.658;2023-11-22T14:33:50;9.6;64.2
79750;SHT31;69233;51.968;5.658;2023-11-22T14:36:18;9.6;63.4
79750;SHT31;69233;51.968;5.658;2023-11-22T14:38:47;9.6;63.6
79750;SHT31;69233;51.968;5.658;2023-11-22T14:41:20;9.5;64.0
79750;SHT31;69233;51.968;5.658;2023-11-22T14:43:49;9.5;63.8
79750;SHT31;69233;51.968;5.658;2023-11-22T14:46:18;9.5;64.3
79750;SHT31;69233;51.968;5.658;2023-11-22T14:48:47;9.5;64.4
79750;SHT31;69233;51.968;5.658;2023-11-22T14:51:15;9.4;64.4
79750;SHT31;69233;51.968;5.658;2023-11-22T14:53:44;9.4;64.9
79750;SHT31;69233;51.968;5.658;2023-11-22T14:56:13;9.4;64.9
79750;SHT31;69233;51.968;5.658;2023-11-22T14:58:42;9.4;65.0
79750;SHT31;69233;51.968;5.658;2023-11-22T15:01:12;9.3;65.7
79750;SHT31;69233;51.968;5.658;2023-11-22T15:03:40;9.3;65.2
79750;SHT31;69233;51.968;5.658;2023-11-22T15:06:09;9.3;65.7
79750;SHT31;69233;51.968;5.658;2023-11-22T15:08:38;9.3;65.7
79750;SHT31;69233;51.968;5.658;2023-11-22T15:11:06;9.3;66.8
79750;SHT31;69233;51.968;5.658;2023-11-22T15:13:36;9.3;66.8
79750;SHT31;69233;51.968;5.658;2023-11-22T15:16:05;9.3;66.5
79750;SHT31;69233;51.968;5.658;2023-11-22T15:18:34;9.3;66.6
79750;SHT31;69233;51.968;5.658;2023-11-22T15:21:03;9.4;65.6
79750;SHT31;69233;51.968;5.658;2023-11-22T15:23:32;9.4;65.5
79750;SHT31;69233;51.968;5.658;2023-11-22T15:26:02;9.4;65.9
79750;SHT31;69233;51.968;5.658;2023-11-22T15:28:30;9.4;65.8
79750;SHT31;69233;51.968;5.658;2023-11-22T15:30:59;9.4;65.5
79750;SHT31;69233;51.968;5.658;2023-11-22T15:33:29;9.4;66.0
79750;SHT31;69233;51.968;5.658;2023-11-22T15:35:57;9.3;64.9
79750;SHT31;69233;51.968;5.658;2023-11-22T15:38:27;9.3;65.5
79750;SHT31;69233;51.968;5.658;2023-11-22T15:40:55;9.3;65.7
79750;SHT31;69233;51.968;5.658;2023-11-22T15:43:25;9.2;66.1
79750;SHT31;69233;51.968;5.658;2023-11-22T15:45:55;9.2;65.9
79750;SHT31;69233;51.968;5.658;2023-11-22T15:48:25;9.2;65.9
79750;SHT31;69233;51.968;5.658;2023-11-22T15:50:54;9.1;66.3
79750;SHT31;69233;51.968;5.658;2023-11-22T15:53:23;9.1;66.7
79750;SHT31;69233;51.968;5.658;2023-11-22T15:55:52;9.1;66.5
79750;SHT31;69233;51.968;5.658;2023-11-22T15:58:20;9.1;66.2
79750;SHT31;69233;51.968;5.658;2023-11-22T16:00:49;9.1;66.0
79750;SHT31;69233;51.968;5.658;2023-11-22T16:03:19;9.0;66.2
79750;SHT31;69233;51.968;5.658;2023-11-22T16:05:48;9.0;66.4
79750;SHT31;69233;51.968;5.658;2023-11-22T16:08:19;8.9;66.8
79750;SHT31;69233;51.968;5.658;2023-11-22T16:10:48;8.9;66.9
79750;SHT31;69233;51.968;5.658;2023-11-22T16:13:19;8.9;66.5
79750;SHT31;69233;51.968;5.658;2023-11-22T16:15:48;8.9;66.8
79750;SHT31;69233;51.968;5.658;2023-11-22T16:18:17;8.8;66.4
79750;SHT31;69233;51.968;5.658;2023-11-22T16:20:51;8.8;66.8
79750;SHT31;69233;51.968;5.658;2023-11-22T16:23:19;8.8;66.6
79750;SHT31;69233;51.968;5.658;2023-11-22T16:25:49;8.8;67.1
79750;SHT31;69233;51.968;5.658;2023-11-22T16:28:18;8.8;67.0
79750;SHT31;69233;51.968;5.658;2023-11-22T16:30:47;8.7;66.9
79750;SHT31;69233;51.968;5.658;2023-11-22T16:33:16;8.7;67.7
79750;SHT31;69233;51.968;5.658;2023-11-22T16:35:47;8.7;67.9
79750;SHT31;69233;51.968;5.658;2023-11-22T16:38:17;8.7;67.7
79750;SHT31;69233;51.968;5.658;2023-11-22T16:40:46;8.7;68.1
79750;SHT31;69233;51.968;5.658;2023-11-22T16:43:20;8.7;68.0
79750;SHT31;69233;51.968;5.658;2023-11-22T16:45:50;8.7;67.4